Time;durP1;ratioP1;P1;durP2;ratioP2;P2;SDS_P1;SDS_P2;PMS_P1;PMS_P2;Temp;Humidity;BMP_temperature;BMP_pressure;BME280_temperature;BME280_humidity;BME280_pressure;Samples;Min_cycle;Max_cycle;Signal;HPM_P1;HPM_P2
2022/12/19 00:01:44;;;;;;;;;;;23.20;76.90;;;;;;5097309;28;19955;-52
2022/12/19 00:04:11;;;;;;;;;;;23.20;77.00;;;;;;5077519;28;20003;-50
2022/12/19 00:06:37;;;;;;;;;;;23.20;77.00;;;;;;5095134;28;20385;-51
2022/12/19 00:09:03;;;;;;;;;;;23.10;77.50;;;;;;5078933;28;20279;-50
2022/12/19 00:11:29;;;;;;;;;;;23.10;77.10;;;;;;5097086;28;19915;-51
2022/12/19 00:13:54;;;;;;;;;;;23.10;77.10;;;;;;5097028;28;19908;-48
2022/12/19 00:16:21;;;;;;;;;;;23.10;77.10;;;;;;5095762;28;19912;-51
2022/12/19 00:18:47;;;;;;;;;;;23.00;77.10;;;;;;5096714;28;20382;-53
2022/12/19 00:21:16;;;;;;;;;;;23.00;76.90;;;;;;5096621;28;19916;-51
2022/12/19 00:23:42;;;;;;;;;;;23.10;77.10;;;;;;5096515;28;19915;-52
2022/12/19 00:26:13;;;;;;;;;;;23.10;77.00;;;;;;5096494;28;19917;-53
2022/12/19 00:28:40;;;;;;;;;;;23.10;77.10;;;;;;5096725;28;20355;-51
2022/12/19 00:31:05;;;;;;;;;;;23.00;77.00;;;;;;5097022;28;19908;-50
2022/12/19 00:33:31;;;;;;;;;;;23.10;77.10;;;;;;5096645;28;19915;-51
2022/12/19 00:36:01;;;;;;;;;;;23.10;77.10;;;;;;5096603;28;20264;-50
2022/12/19 00:38:27;;;;;;;;;;;23.10;76.90;;;;;;5095133;28;19921;-50
2022/12/19 00:40:52;;;;;;;;;;;23.20;76.90;;;;;;5096529;28;19931;-49
2022/12/19 00:43:18;;;;;;;;;;;23.20;76.70;;;;;;5095941;28;19955;-47
2022/12/19 00:45:43;;;;;;;;;;;23.20;76.80;;;;;;5096271;28;19916;-50
2022/12/19 00:48:09;;;;;;;;;;;23.20;76.90;;;;;;5076952;28;19923;-51
2022/12/19 00:50:34;;;;;;;;;;;23.20;76.80;;;;;;5096108;28;19908;-51
2022/12/19 00:53:00;;;;;;;;;;;23.20;76.70;;;;;;5096056;28;19914;-49
2022/12/19 00:55:25;;;;;;;;;;;23.20;76.70;;;;;;5096321;28;19908;-51
2022/12/19 00:57:51;;;;;;;;;;;23.20;76.70;;;;;;5095005;28;19912;-51
2022/12/19 01:00:16;;;;;;;;;;;23.20;76.80;;;;;;5095938;28;19915;-49
2022/12/19 01:02:42;;;;;;;;;;;23.10;76.90;;;;;;5095920;28;19908;-48
2022/12/19 01:05:08;;;;;;;;;;;23.20;77.00;;;;;;5096121;28;20046;-51
2022/12/19 01:07:34;;;;;;;;;;;23.10;77.00;;;;;;5095669;28;20355;-52
2022/12/19 01:10:00;;;;;;;;;;;23.10;77.10;;;;;;5095470;28;19919;-49
2022/12/19 01:15:09;;;;;;;;;;;23.10;77.10;;;;;;5095595;28;19919;-52
2022/12/19 01:17:35;;;;;;;;;;;23.10;77.00;;;;;;5095788;28;19908;-53
2022/12/19 01:20:00;;;;;;;;;;;23.10;77.00;;;;;;5094632;28;19920;-52
2022/12/19 01:22:26;;;;;;;;;;;23.10;76.90;;;;;;5095678;28;19978;-52
2022/12/19 01:24:51;;;;;;;;;;;23.10;76.80;;;;;;5095412;28;19908;-48
2022/12/19 01:27:17;;;;;;;;;;;23.10;76.90;;;;;;5077446;28;19916;-50
2022/12/19 01:29:42;;;;;;;;;;;23.20;76.90;;;;;;5094430;28;19912;-51
2022/12/19 01:32:08;;;;;;;;;;;23.20;76.80;;;;;;5095522;28;19908;-51
2022/12/19 01:34:33;;;;;;;;;;;23.20;76.80;;;;;;5095802;28;19912;-50
2022/12/19 01:36:59;;;;;;;;;;;23.30;76.70;;;;;;5095065;28;19921;-50
2022/12/19 01:39:24;;;;;;;;;;;23.30;76.70;;;;;;5094525;28;19919;-51
2022/12/19 01:41:50;;;;;;;;;;;23.30;76.70;;;;;;5092951;28;19920;-49
2022/12/19 01:44:15;;;;;;;;;;;23.30;76.70;;;;;;5095411;28;19912;-51
2022/12/19 01:46:48;;;;;;;;;;;23.30;76.60;;;;;;5095232;28;19916;-48
2022/12/19 01:49:30;;;;;;;;;;;23.20;76.70;;;;;;5094208;28;19912;-52
2022/12/19 01:51:58;;;;;;;;;;;23.20;76.70;;;;;;5094938;28;19908;-53
2022/12/19 01:54:26;;;;;;;;;;;23.20;76.80;;;;;;5094415;28;19908;-50
2022/12/19 01:56:53;;;;;;;;;;;23.20;77.00;;;;;;5094542;28;19908;-52
2022/12/19 01:59:31;;;;;;;;;;;23.10;77.00;;;;;;5094232;28;19970;-54
2022/12/19 02:02:01;;;;;;;;;;;23.10;77.00;;;;;;5095136;28;19912;-48
2022/12/19 02:04:27;;;;;;;;;;;23.10;77.00;;;;;;5095129;28;19995;-50
2022/12/19 02:06:53;;;;;;;;;;;23.00;77.10;;;;;;5094487;28;20007;-51
2022/12/19 02:09:19;;;;;;;;;;;23.00;77.20;;;;;;5094589;28;19955;-50
2022/12/19 02:11:47;;;;;;;;;;;22.90;77.30;;;;;;5093969;28;20295;-47
2022/12/19 02:14:13;;;;;;;;;;;22.90;77.30;;;;;;5110272;28;20362;-53
2022/12/19 02:16:44;;;;;;;;;;;22.90;77.30;;;;;;5094512;28;19908;-48
2022/12/19 02:19:12;;;;;;;;;;;22.90;77.40;;;;;;5094363;28;19948;-51
2022/12/19 02:21:47;;;;;;;;;;;22.90;77.30;;;;;;5093477;28;19914;-49
2022/12/19 02:24:15;;;;;;;;;;;22.80;77.40;;;;;;5094613;28;19916;-51
2022/12/19 02:26:43;;;;;;;;;;;22.80;77.60;;;;;;5094553;28;20367;-51
2022/12/19 02:29:23;;;;;;;;;;;22.80;77.60;;;;;;5092476;28;19942;-50
2022/12/19 02:31:53;;;;;;;;;;;22.80;77.50;;;;;;5094303;28;20002;-50
2022/12/19 02:34:28;;;;;;;;;;;22.80;77.40;;;;;;5094245;28;19908;-52
2022/12/19 02:37:01;;;;;;;;;;;22.80;77.40;;;;;;5093947;28;19927;-51
2022/12/19 02:39:38;;;;;;;;;;;22.90;77.30;;;;;;5092642;28;19920;-50
2022/12/19 02:42:06;;;;;;;;;;;22.90;77.30;;;;;;5094114;28;19915;-51
2022/12/19 02:44:34;;;;;;;;;;;22.90;77.30;;;;;;5094570;28;19962;-52
2022/12/19 02:47:01;;;;;;;;;;;23.00;77.20;;;;;;5076068;28;19921;-51
2022/12/19 02:49:27;;;;;;;;;;;23.00;77.10;;;;;;5094415;28;19908;-53
2022/12/19 02:51:53;;;;;;;;;;;23.10;77.00;;;;;;5092809;28;19919;-51
2022/12/19 02:54:18;;;;;;;;;;;23.20;77.00;;;;;;5093177;28;19912;-50
2022/12/19 02:56:49;;;;;;;;;;;23.20;76.80;;;;;;5093929;28;19911;-49
2022/12/19 02:59:33;;;;;;;;;;;23.30;76.70;;;;;;5094220;28;19908;-51
2022/12/19 03:02:21;;;;;;;;;;;23.30;76.50;;;;;;5092578;28;19974;-51
2022/12/19 03:04:51;;;;;;;;;;;23.40;76.40;;;;;;5094196;28;19951;-48
2022/12/19 03:07:28;;;;;;;;;;;23.50;76.40;;;;;;5097213;28;19916;-50
2022/12/19 03:09:54;;;;;;;;;;;23.50;76.10;;;;;;5098302;28;19919;-52
2022/12/19 03:12:25;;;;;;;;;;;23.50;76.10;;;;;;5097403;28;19923;-51
2022/12/19 03:14:51;;;;;;;;;;;23.50;76.10;;;;;;5098578;28;19909;-49
2022/12/19 03:17:20;;;;;;;;;;;23.40;76.20;;;;;;5080102;28;19908;-50
2022/12/19 03:19:45;;;;;;;;;;;23.40;76.30;;;;;;5097849;28;20416;-52
2022/12/19 03:22:11;;;;;;;;;;;23.30;76.20;;;;;;5097605;28;19916;-52
2022/12/19 03:24:36;;;;;;;;;;;23.30;76.40;;;;;;5098097;28;19948;-50
2022/12/19 03:27:07;;;;;;;;;;;23.20;76.50;;;;;;5097960;28;19931;-51
2022/12/19 03:29:37;;;;;;;;;;;23.20;76.70;;;;;;5098152;28;19944;-50
2022/12/19 03:32:04;;;;;;;;;;;23.10;76.80;;;;;;5096553;28;19965;-50
2022/12/19 03:34:33;;;;;;;;;;;23.10;77.00;;;;;;5093888;28;19922;-50
2022/12/19 03:37:01;;;;;;;;;;;23.10;77.10;;;;;;5096936;28;20338;-52
2022/12/19 03:39:27;;;;;;;;;;;22.90;77.10;;;;;;5098218;28;20333;-52
2022/12/19 03:44:39;;;;;;;;;;;22.90;77.50;;;;;;5097787;28;19915;-50
2022/12/19 03:47:11;;;;;;;;;;;22.80;77.60;;;;;;5079133;28;19923;-51
2022/12/19 03:49:37;;;;;;;;;;;22.70;77.60;;;;;;5097592;28;19908;-51
2022/12/19 03:52:17;;;;;;;;;;;22.70;77.80;;;;;;5096294;28;19973;-51
2022/12/19 03:54:46;;;;;;;;;;;22.60;77.90;;;;;;5097467;28;19908;-50
2022/12/19 03:57:18;;;;;;;;;;;22.60;78.00;;;;;;5097146;28;19908;-50
2022/12/19 03:59:45;;;;;;;;;;;22.60;78.20;;;;;;5097097;28;19931;-50
2022/12/19 04:02:11;;;;;;;;;;;22.50;78.80;;;;;;5095944;28;20020;-53
2022/12/19 04:04:41;;;;;;;;;;;22.50;78.20;;;;;;5079137;28;20302;-49
2022/12/19 04:07:07;;;;;;;;;;;22.50;78.10;;;;;;5097099;28;19923;-50
2022/12/19 04:09:33;;;;;;;;;;;22.50;78.20;;;;;;5096879;28;19908;-47
2022/12/19 04:12:01;;;;;;;;;;;22.50;78.10;;;;;;5096810;28;19915;-52
2022/12/19 04:14:29;;;;;;;;;;;22.50;78.00;;;;;;5094646;28;19912;-51
2022/12/19 04:17:01;;;;;;;;;;;22.60;78.00;;;;;;5096880;28;19908;-53
2022/12/19 04:19:49;;;;;;;;;;;22.60;77.70;;;;;;5095944;28;19915;-52
2022/12/19 04:22:19;;;;;;;;;;;22.70;77.70;;;;;;5085684;28;20285;-48
2022/12/19 04:24:46;;;;;;;;;;;22.90;77.50;;;;;;5076158;28;19912;-52
2022/12/19 04:27:12;;;;;;;;;;;23.00;77.20;;;;;;5096349;28;19971;-49
2022/12/19 04:29:38;;;;;;;;;;;23.20;77.00;;;;;;5096812;28;19908;-47
2022/12/19 04:32:04;;;;;;;;;;;23.30;76.70;;;;;;5092974;28;19999;-53
2022/12/19 04:34:30;;;;;;;;;;;23.40;76.50;;;;;;5096075;28;19992;-50
2022/12/19 04:36:55;;;;;;;;;;;23.40;76.40;;;;;;5095987;28;20256;-50
2022/12/19 04:39:21;;;;;;;;;;;23.40;76.20;;;;;;5096532;28;19908;-53
2022/12/19 04:41:46;;;;;;;;;;;23.50;76.20;;;;;;5095451;28;20373;-53
2022/12/19 04:44:12;;;;;;;;;;;23.50;76.20;;;;;;5096225;28;19908;-47
2022/12/19 04:46:37;;;;;;;;;;;23.50;76.40;;;;;;5095989;28;20282;-49
2022/12/19 04:49:03;;;;;;;;;;;23.40;76.40;;;;;;5095967;28;19916;-53
2022/12/19 04:51:28;;;;;;;;;;;23.40;76.50;;;;;;5095396;28;19908;-49
2022/12/19 04:53:54;;;;;;;;;;;23.30;76.60;;;;;;5096157;28;19961;-51
2022/12/19 04:56:19;;;;;;;;;;;23.20;76.70;;;;;;5095923;28;19912;-48
2022/12/19 04:58:45;;;;;;;;;;;23.10;76.90;;;;;;5095906;28;19908;-51
2022/12/19 05:01:12;;;;;;;;;;;23.10;77.00;;;;;;5095803;28;19908;-49
2022/12/19 05:03:38;;;;;;;;;;;23.00;77.10;;;;;;5075846;28;19912;-50
2022/12/19 05:06:08;;;;;;;;;;;23.00;77.20;;;;;;5095497;28;19977;-49
2022/12/19 05:08:34;;;;;;;;;;;22.90;77.20;;;;;;5095611;28;19915;-48
2022/12/19 05:11:00;;;;;;;;;;;22.90;77.30;;;;;;5095895;28;19919;-53
2022/12/19 05:13:26;;;;;;;;;;;22.90;77.30;;;;;;5076358;28;19996;-54
2022/12/19 05:15:59;;;;;;;;;;;22.80;77.40;;;;;;5077628;28;20270;-53
2022/12/19 05:18:24;;;;;;;;;;;22.80;77.50;;;;;;5077452;28;20371;-51
2022/12/19 05:20:50;;;;;;;;;;;22.80;77.60;;;;;;5095305;28;19959;-49
2022/12/19 05:23:16;;;;;;;;;;;22.80;77.50;;;;;;5094530;28;20367;-51
2022/12/19 05:25:41;;;;;;;;;;;22.80;78.00;;;;;;5095777;28;20271;-51
2022/12/19 05:28:07;;;;;;;;;;;22.80;77.40;;;;;;5095115;28;19908;-53
2022/12/19 05:30:32;;;;;;;;;;;22.80;77.40;;;;;;5093345;28;19919;-53
2022/12/19 05:32:58;;;;;;;;;;;22.90;77.40;;;;;;5095229;28;19908;-53
2022/12/19 05:35:23;;;;;;;;;;;22.90;77.30;;;;;;5077468;28;19908;-53
2022/12/19 05:37:49;;;;;;;;;;;22.90;77.20;;;;;;5095328;28;19985;-50
2022/12/19 05:40:14;;;;;;;;;;;23.00;77.20;;;;;;5093957;28;20266;-53
2022/12/19 05:42:40;;;;;;;;;;;23.10;77.10;;;;;;5094944;28;19912;-50
2022/12/19 05:45:05;;;;;;;;;;;23.10;77.00;;;;;;5095125;28;19912;-50
2022/12/19 05:47:31;;;;;;;;;;;23.10;76.80;;;;;;5094859;28;19916;-52
2022/12/19 05:49:56;;;;;;;;;;;23.20;76.80;;;;;;5077086;28;19908;-52
2022/12/19 05:52:23;;;;;;;;;;;23.20;76.80;;;;;;5094106;28;19912;-51
2022/12/19 05:54:49;;;;;;;;;;;23.20;76.80;;;;;;5094932;28;19919;-52
2022/12/19 05:57:15;;;;;;;;;;;23.20;76.80;;;;;;5095420;28;19931;-52
2022/12/19 05:59:40;;;;;;;;;;;23.20;76.80;;;;;;5094945;28;19908;-52
2022/12/19 06:02:06;;;;;;;;;;;23.10;76.90;;;;;;5093511;28;19927;-53
2022/12/19 06:04:31;;;;;;;;;;;23.10;77.10;;;;;;5094886;28;20325;-49
2022/12/19 06:06:57;;;;;;;;;;;23.00;77.00;;;;;;5089922;28;19974;-51
2022/12/19 06:09:22;;;;;;;;;;;23.00;76.90;;;;;;5093129;28;19930;-54
2022/12/19 06:11:48;;;;;;;;;;;23.00;77.10;;;;;;5074380;28;19919;-53
2022/12/19 06:14:13;;;;;;;;;;;22.90;77.00;;;;;;5094977;28;19908;-51
2022/12/19 06:16:39;;;;;;;;;;;22.90;77.10;;;;;;5094574;28;19912;-48
2022/12/19 06:19:04;;;;;;;;;;;22.90;77.20;;;;;;5094443;28;19998;-51
2022/12/19 06:21:30;;;;;;;;;;;22.90;77.10;;;;;;5094473;28;19908;-52
2022/12/19 06:23:55;;;;;;;;;;;22.90;77.20;;;;;;5093335;28;19919;-52
2022/12/19 06:26:21;;;;;;;;;;;22.90;77.20;;;;;;5108206;28;19928;-50
2022/12/19 06:28:47;;;;;;;;;;;22.90;77.30;;;;;;5094141;28;20313;-51
2022/12/19 06:31:13;;;;;;;;;;;22.90;77.30;;;;;;5094030;28;19915;-50
2022/12/19 06:33:38;;;;;;;;;;;23.00;77.20;;;;;;5094121;28;19916;-53
2022/12/19 06:36:05;;;;;;;;;;;23.00;77.20;;;;;;5093189;28;20357;-53
2022/12/19 06:38:31;;;;;;;;;;;23.10;77.10;;;;;;5093639;28;19921;-51
2022/12/19 06:43:41;;;;;;;;;;;23.10;77.10;;;;;;5082725;28;19915;-49
2022/12/19 06:46:07;;;;;;;;;;;23.10;76.90;;;;;;5093691;28;19917;-50
2022/12/19 06:48:32;;;;;;;;;;;23.20;76.90;;;;;;5092122;28;19916;-50
2022/12/19 06:50:58;;;;;;;;;;;23.20;76.70;;;;;;5093673;28;19908;-53
2022/12/19 06:53:23;;;;;;;;;;;23.20;76.60;;;;;;5093653;28;19995;-50
2022/12/19 06:55:50;;;;;;;;;;;23.20;76.60;;;;;;5093557;28;19915;-54
2022/12/19 06:58:16;;;;;;;;;;;23.20;76.60;;;;;;5092250;28;19912;-52
2022/12/19 07:00:41;;;;;;;;;;;23.20;76.60;;;;;;5092057;28;20007;-47
2022/12/19 07:03:09;;;;;;;;;;;23.20;76.60;;;;;;5093792;28;19916;-49
2022/12/19 07:05:34;;;;;;;;;;;23.20;76.60;;;;;;5093337;28;19908;-51
2022/12/19 07:08:00;;;;;;;;;;;23.20;76.70;;;;;;5091608;28;19976;-49
2022/12/19 07:10:25;;;;;;;;;;;23.20;76.80;;;;;;5092295;28;19923;-54
2022/12/19 07:12:51;;;;;;;;;;;23.20;77.60;;;;;;5070937;28;20375;-49
2022/12/19 07:15:16;;;;;;;;;;;23.10;76.80;;;;;;5092234;28;19912;-52
2022/12/19 07:17:42;;;;;;;;;;;23.10;75.30;;;;;;5095730;28;19920;-50
2022/12/19 07:20:08;;;;;;;;;;;23.10;76.50;;;;;;5092536;28;19958;-50
2022/12/19 07:22:33;;;;;;;;;;;23.00;76.70;;;;;;5091124;28;19951;-51
2022/12/19 07:25:00;;;;;;;;;;;23.00;76.90;;;;;;5090795;28;20355;-47
2022/12/19 07:27:27;;;;;;;;;;;22.90;76.70;;;;;;5090646;28;19920;-45
2022/12/19 07:29:52;;;;;;;;;;;22.80;77.50;;;;;;5091208;28;19918;-54
2022/12/19 07:32:18;;;;;;;;;;;22.90;77.50;;;;;;5096720;28;20341;-47
2022/12/19 07:34:43;;;;;;;;;;;22.90;77.40;;;;;;5078743;28;20279;-50
2022/12/19 07:37:08;;;;;;;;;;;22.90;77.30;;;;;;5085757;28;20034;-49
2022/12/19 07:39:34;;;;;;;;;;;22.90;77.40;;;;;;5091859;28;19918;-49
2022/12/19 07:41:59;;;;;;;;;;;22.90;77.40;;;;;;5093736;28;20359;-47
2022/12/19 07:44:25;;;;;;;;;;;22.90;77.40;;;;;;5090111;28;19912;-51
2022/12/19 07:46:50;;;;;;;;;;;23.00;77.40;;;;;;5089894;28;19968;-48
2022/12/19 07:49:16;;;;;;;;;;;23.10;77.30;;;;;;5092258;28;19912;-52
2022/12/19 07:51:41;;;;;;;;;;;23.10;77.20;;;;;;5100861;28;19912;-49
2022/12/19 07:54:07;;;;;;;;;;;23.20;77.00;;;;;;5109492;28;19965;-49
2022/12/19 07:56:32;;;;;;;;;;;23.30;76.90;;;;;;5095154;28;19912;-49
2022/12/19 07:58:57;;;;;;;;;;;23.30;76.70;;;;;;5096279;28;20262;-48
2022/12/19 08:01:23;;;;;;;;;;;23.40;76.60;;;;;;5094578;28;20362;-49
2022/12/19 08:03:48;;;;;;;;;;;23.50;76.60;;;;;;5096797;28;19915;-48
2022/12/19 08:06:14;;;;;;;;;;;23.50;76.40;;;;;;5100649;28;20374;-49
2022/12/19 08:08:40;;;;;;;;;;;23.50;76.60;;;;;;5096723;28;19923;-50
2022/12/19 08:11:06;;;;;;;;;;;23.50;76.60;;;;;;5096662;28;19908;-48
2022/12/19 08:13:32;;;;;;;;;;;23.30;76.80;;;;;;5101850;28;19974;-50
2022/12/19 08:16:01;;;;;;;;;;;23.20;77.10;;;;;;5093677;28;20316;-51
2022/12/19 08:18:27;;;;;;;;;;;22.90;76.80;;;;;;5090889;28;19916;-53
2022/12/19 08:20:52;;;;;;;;;;;22.90;77.60;;;;;;5095578;28;19915;-50
2022/12/19 08:23:20;;;;;;;;;;;22.80;78.10;;;;;;5094846;28;19908;-49
2022/12/19 08:25:46;;;;;;;;;;;22.60;78.10;;;;;;5098089;28;19960;-54
2022/12/19 08:28:12;;;;;;;;;;;22.50;78.50;;;;;;5094024;28;19947;-51
2022/12/19 08:30:40;;;;;;;;;;;22.40;78.80;;;;;;5093057;28;20305;-48
2022/12/19 08:33:06;;;;;;;;;;;22.30;79.00;;;;;;5096602;28;19975;-52
2022/12/19 08:35:32;;;;;;;;;;;22.20;79.30;;;;;;5095308;28;19963;-47
2022/12/19 08:37:57;;;;;;;;;;;22.20;79.50;;;;;;5083581;28;19947;-50
2022/12/19 08:40:22;;;;;;;;;;;22.10;79.70;;;;;;5079909;28;19988;-48
2022/12/19 08:42:49;;;;;;;;;;;22.00;79.80;;;;;;5070923;28;19912;-48
2022/12/19 08:45:15;;;;;;;;;;;22.00;79.90;;;;;;5083425;28;20242;-49
2022/12/19 08:47:42;;;;;;;;;;;22.00;79.90;;;;;;5095924;28;20314;-47
2022/12/19 08:50:08;;;;;;;;;;;22.00;80.00;;;;;;5081408;28;20258;-50
2022/12/19 08:52:33;;;;;;;;;;;22.10;79.90;;;;;;5073599;28;19908;-48
2022/12/19 08:54:59;;;;;;;;;;;22.20;79.70;;;;;;5074531;28;19930;-46
2022/12/19 08:57:25;;;;;;;;;;;22.30;79.50;;;;;;5074829;28;19909;-48
2022/12/19 08:59:50;;;;;;;;;;;22.40;79.40;;;;;;5074653;28;19971;-47
2022/12/19 09:02:16;;;;;;;;;;;22.50;79.10;;;;;;5076970;28;19908;-51
2022/12/19 09:04:41;;;;;;;;;;;22.60;78.80;;;;;;5075040;28;19904;-53
2022/12/19 09:07:06;;;;;;;;;;;22.80;78.50;;;;;;5055561;28;19917;-51
2022/12/19 09:09:32;;;;;;;;;;;22.90;78.20;;;;;;5075406;28;20254;-53
2022/12/19 09:11:57;;;;;;;;;;;23.00;77.90;;;;;;5078986;28;19908;-52
2022/12/19 09:14:23;;;;;;;;;;;23.10;77.70;;;;;;5072595;28;19912;-50
2022/12/19 09:16:48;;;;;;;;;;;23.20;77.50;;;;;;5075597;28;19995;-53
2022/12/19 09:19:15;;;;;;;;;;;23.20;77.40;;;;;;5084596;28;20247;-56
2022/12/19 09:21:41;;;;;;;;;;;23.30;77.20;;;;;;5095647;28;20284;-57
2022/12/19 09:24:07;;;;;;;;;;;23.40;77.20;;;;;;5075884;28;19909;-52
2022/12/19 09:26:33;;;;;;;;;;;23.30;77.10;;;;;;5072009;28;20260;-54
2022/12/19 09:28:59;;;;;;;;;;;23.30;77.20;;;;;;5074195;28;20350;-52
2022/12/19 09:31:25;;;;;;;;;;;23.20;77.30;;;;;;5054012;28;19904;-50
2022/12/19 09:33:51;;;;;;;;;;;23.20;77.40;;;;;;5071247;28;19962;-52
2022/12/19 09:36:18;;;;;;;;;;;23.20;77.50;;;;;;5071232;28;19916;-54
2022/12/19 09:38:44;;;;;;;;;;;23.10;77.60;;;;;;5092668;28;19919;-51
2022/12/19 09:41:23;;;;;;;;;;;23.10;77.70;;;;;;5110814;28;19930;-53
2022/12/19 09:44:03;;;;;;;;;;;23.00;77.90;;;;;;5095364;28;19904;-55
2022/12/19 09:46:36;;;;;;;;;;;22.90;78.00;;;;;;5100049;28;20258;-57
2022/12/19 09:49:02;;;;;;;;;;;22.90;78.10;;;;;;5115315;28;20258;-57
2022/12/19 09:51:45;;;;;;;;;;;22.90;78.30;;;;;;5095002;28;20499;-53
2022/12/19 09:54:29;;;;;;;;;;;22.80;78.40;;;;;;5076711;28;19908;-55
2022/12/19 09:56:57;;;;;;;;;;;22.70;78.50;;;;;;5087570;28;20338;-51
2022/12/19 09:59:27;;;;;;;;;;;22.70;78.60;;;;;;5092568;28;19904;-51
2022/12/19 10:01:58;;;;;;;;;;;22.70;78.70;;;;;;5090513;28;19912;-50
2022/12/19 10:04:25;;;;;;;;;;;22.70;78.70;;;;;;5084239;28;20315;-53
2022/12/19 10:06:51;;;;;;;;;;;22.70;78.70;;;;;;5114998;28;20257;-56
2022/12/19 10:09:18;;;;;;;;;;;22.70;78.60;;;;;;5086683;28;20003;-52
2022/12/19 10:11:46;;;;;;;;;;;22.80;78.80;;;;;;5093222;28;19915;-50
2022/12/19 10:14:12;;;;;;;;;;;22.70;78.70;;;;;;5093205;28;19904;-48
2022/12/19 10:16:56;;;;;;;;;;;22.70;78.80;;;;;;5075622;28;19915;-53
2022/12/19 10:19:33;;;;;;;;;;;22.70;78.80;;;;;;5073993;28;19912;-52
2022/12/19 10:22:02;;;;;;;;;;;22.70;78.80;;;;;;5106644;28;19930;-49
2022/12/19 10:24:46;;;;;;;;;;;22.60;78.00;;;;;;5092077;28;20351;-53
2022/12/19 10:27:18;;;;;;;;;;;22.60;77.90;;;;;;5094083;28;19920;-49
2022/12/19 10:29:56;;;;;;;;;;;22.60;78.80;;;;;;5099838;28;20288;-48
2022/12/19 10:32:30;;;;;;;;;;;22.60;79.00;;;;;;5107744;28;20293;-52
2022/12/19 10:34:55;;;;;;;;;;;22.50;79.00;;;;;;5093145;28;19958;-48
2022/12/19 10:37:28;;;;;;;;;;;22.50;79.00;;;;;;5093466;28;19916;-47
2022/12/19 10:39:54;;;;;;;;;;;22.60;79.00;;;;;;5093097;28;19930;-51
2022/12/19 10:42:31;;;;;;;;;;;22.60;79.00;;;;;;5093246;28;20347;-51
2022/12/19 10:44:57;;;;;;;;;;;22.60;79.00;;;;;;5093141;28;20050;-51
2022/12/19 10:47:24;;;;;;;;;;;22.60;79.00;;;;;;5094158;28;19912;-50
2022/12/19 10:49:49;;;;;;;;;;;22.60;79.00;;;;;;5092050;28;19952;-52
2022/12/19 10:52:35;;;;;;;;;;;22.60;78.90;;;;;;5092815;28;19904;-52
2022/12/19 10:55:00;;;;;;;;;;;22.60;78.90;;;;;;5091785;28;19998;-47
2022/12/19 10:57:28;;;;;;;;;;;22.60;78.90;;;;;;5092855;28;19962;-51
2022/12/19 10:59:57;;;;;;;;;;;22.60;79.10;;;;;;5111262;28;19930;-49
2022/12/19 11:02:31;;;;;;;;;;;22.70;79.00;;;;;;5108522;28;19915;-51
2022/12/19 11:04:57;;;;;;;;;;;22.70;79.00;;;;;;5090153;28;19994;-54
2022/12/19 11:07:22;;;;;;;;;;;22.70;78.90;;;;;;5090491;28;20007;-48
2022/12/19 11:09:48;;;;;;;;;;;22.70;78.50;;;;;;5100033;28;19908;-49
2022/12/19 11:12:14;;;;;;;;;;;22.70;78.70;;;;;;5092751;28;19908;-52
2022/12/19 11:14:41;;;;;;;;;;;22.70;78.90;;;;;;5092646;28;19922;-47
2022/12/19 11:17:23;;;;;;;;;;;22.70;78.80;;;;;;5092603;28;20339;-52
2022/12/19 11:19:48;;;;;;;;;;;22.80;78.70;;;;;;5089990;28;19938;-53
2022/12/19 11:22:20;;;;;;;;;;;22.80;78.70;;;;;;5092438;28;19939;-51
2022/12/19 11:24:49;;;;;;;;;;;22.80;78.70;;;;;;5095678;28;19915;-47
2022/12/19 11:27:34;;;;;;;;;;;22.80;78.50;;;;;;5089099;28;19916;-47
2022/12/19 11:30:00;;;;;;;;;;;22.90;78.60;;;;;;5087426;28;19919;-48
2022/12/19 11:32:25;;;;;;;;;;;22.80;78.60;;;;;;5094357;28;19908;-47
2022/12/19 11:34:51;;;;;;;;;;;22.80;78.60;;;;;;5096997;28;20242;-51
2022/12/19 11:37:31;;;;;;;;;;;22.90;78.60;;;;;;5094627;28;19916;-50
2022/12/19 11:40:00;;;;;;;;;;;22.90;78.60;;;;;;5104145;28;19923;-52
2022/12/19 11:42:30;;;;;;;;;;;22.90;78.60;;;;;;5096901;28;19999;-47
2022/12/19 11:45:13;;;;;;;;;;;22.90;78.60;;;;;;5095059;28;19917;-53
2022/12/19 11:47:51;;;;;;;;;;;22.90;78.60;;;;;;5096496;28;20021;-52
2022/12/19 11:50:18;;;;;;;;;;;23.00;78.60;;;;;;5096475;28;19962;-48
2022/12/19 11:52:43;;;;;;;;;;;23.00;78.60;;;;;;5105657;28;19980;-48
2022/12/19 11:55:25;;;;;;;;;;;22.90;78.60;;;;;;5117782;28;20242;-49
2022/12/19 11:57:51;;;;;;;;;;;22.90;78.60;;;;;;5102740;28;19908;-49
2022/12/19 12:00:19;;;;;;;;;;;22.90;78.70;;;;;;5094346;28;19908;-50
2022/12/19 12:03:12;;;;;;;;;;;22.90;78.70;;;;;;5088856;28;19931;-51
2022/12/19 12:05:41;;;;;;;;;;;22.90;78.70;;;;;;5094450;28;19908;-51
2022/12/19 12:08:12;;;;;;;;;;;22.90;78.60;;;;;;5095808;28;20431;-55
2022/12/19 12:10:40;;;;;;;;;;;23.00;78.60;;;;;;5100827;28;20004;-55
2022/12/19 12:13:13;;;;;;;;;;;23.00;78.50;;;;;;5088615;28;19908;-49
2022/12/19 12:15:41;;;;;;;;;;;23.00;78.40;;;;;;5095466;28;19955;-50
2022/12/19 12:18:10;;;;;;;;;;;23.10;78.40;;;;;;5095110;28;19912;-49
2022/12/19 12:20:57;;;;;;;;;;;23.10;78.40;;;;;;5094264;28;20278;-46
2022/12/19 12:23:36;;;;;;;;;;;23.10;78.40;;;;;;5092209;28;19957;-49
2022/12/19 12:26:02;;;;;;;;;;;23.20;78.30;;;;;;5112139;28;19923;-52
2022/12/19 12:28:43;;;;;;;;;;;23.20;78.10;;;;;;5095043;28;19908;-50
2022/12/19 12:31:11;;;;;;;;;;;23.20;77.90;;;;;;5076357;28;19912;-47
2022/12/19 12:33:37;;;;;;;;;;;23.30;77.90;;;;;;5095713;28;20007;-48
2022/12/19 12:36:06;;;;;;;;;;;23.40;77.80;;;;;;5095290;28;20452;-48
2022/12/19 12:38:52;;;;;;;;;;;23.40;78.30;;;;;;5093704;28;20411;-48
2022/12/19 12:42:02;;;;;;;;;;;23.40;77.80;;;;;;5112665;28;19958;-47
2022/12/19 12:44:12;;;;;;;;;;;23.40;77.70;;;;;;5087600;28;19918;-49
2022/12/19 12:46:57;;;;;;;;;;;23.30;77.60;;;;;;5092624;28;19916;-49
2022/12/19 12:49:37;;;;;;;;;;;23.40;77.70;;;;;;5102142;28;20394;-49
2022/12/19 12:52:07;;;;;;;;;;;23.30;77.70;;;;;;5108926;28;19915;-46
2022/12/19 12:54:36;;;;;;;;;;;23.30;77.70;;;;;;5109999;28;20102;-47
2022/12/19 12:57:02;;;;;;;;;;;23.30;77.80;;;;;;5076358;28;19912;-46
2022/12/19 12:59:28;;;;;;;;;;;23.30;77.70;;;;;;5092631;28;20315;-48
2022/12/19 13:01:55;;;;;;;;;;;23.30;77.70;;;;;;5087289;28;20316;-53
2022/12/19 13:04:44;;;;;;;;;;;23.30;77.70;;;;;;5092814;28;19945;-48
2022/12/19 13:07:27;;;;;;;;;;;23.30;77.70;;;;;;5081129;28;19927;-51
2022/12/19 13:10:03;;;;;;;;;;;23.30;77.70;;;;;;5095666;28;20431;-50
2022/12/19 13:15:31;;;;;;;;;;;23.30;77.80;;;;;;5089448;28;19915;-50
2022/12/19 13:18:01;;;;;;;;;;;23.30;77.80;;;;;;5090772;28;19918;-48
2022/12/19 13:20:26;;;;;;;;;;;23.30;78.40;;;;;;5093638;28;19908;-53
2022/12/19 13:22:57;;;;;;;;;;;23.20;77.90;;;;;;5093542;28;19920;-52
2022/12/19 13:25:26;;;;;;;;;;;23.20;78.00;;;;;;5093085;28;19908;-52
2022/12/19 13:28:17;;;;;;;;;;;23.20;78.10;;;;;;5094019;28;20359;-51
2022/12/19 13:31:01;;;;;;;;;;;23.20;78.20;;;;;;5075206;28;20286;-53
2022/12/19 13:33:46;;;;;;;;;;;23.20;78.20;;;;;;5094208;28;19943;-49
2022/12/19 13:36:38;;;;;;;;;;;23.30;78.30;;;;;;5101040;28;20350;-57
2022/12/19 13:39:03;;;;;;;;;;;23.30;78.20;;;;;;5055873;28;20134;-54
2022/12/19 13:44:17;;;;;;;;;;;23.30;78.20;;;;;;5073764;28;19919;-53
2022/12/19 13:46:44;;;;;;;;;;;23.30;78.10;;;;;;5073312;28;20370;-51
2022/12/19 13:49:11;;;;;;;;;;;23.40;78.10;;;;;;5072773;28;19916;-53
2022/12/19 13:51:56;;;;;;;;;;;23.40;78.40;;;;;;5073773;28;20330;-51
2022/12/19 13:54:21;;;;;;;;;;;23.40;78.20;;;;;;5092202;28;20007;-50
2022/12/19 13:56:47;;;;;;;;;;;23.50;78.10;;;;;;5073201;28;19947;-49
2022/12/19 13:59:13;;;;;;;;;;;23.50;78.00;;;;;;5073120;28;19912;-52
2022/12/19 14:01:39;;;;;;;;;;;23.50;78.00;;;;;;5071183;28;20022;-53
2022/12/19 14:04:07;;;;;;;;;;;23.50;78.00;;;;;;5071731;28;19978;-53
2022/12/19 14:06:39;;;;;;;;;;;23.50;78.00;;;;;;5071166;28;19927;-51
2022/12/19 14:09:06;;;;;;;;;;;23.60;78.00;;;;;;5072509;28;20007;-52
2022/12/19 14:11:35;;;;;;;;;;;23.60;77.90;;;;;;5073227;28;19908;-50
2022/12/19 14:16:45;;;;;;;;;;;23.60;78.00;;;;;;5072023;28;20302;-53
2022/12/19 14:19:21;;;;;;;;;;;23.50;78.00;;;;;;5071465;28;20007;-51
2022/12/19 14:21:47;;;;;;;;;;;23.50;78.00;;;;;;5072013;28;19951;-55
2022/12/19 14:24:20;;;;;;;;;;;23.50;78.00;;;;;;5078476;28;19919;-53
2022/12/19 14:26:51;;;;;;;;;;;23.50;78.10;;;;;;5091746;28;20049;-53
2022/12/19 14:29:26;;;;;;;;;;;23.50;78.10;;;;;;5083159;28;20003;-53
2022/12/19 14:31:53;;;;;;;;;;;23.50;78.10;;;;;;5069060;28;19966;-51
2022/12/19 14:34:27;;;;;;;;;;;23.50;78.10;;;;;;5053877;28;20250;-54
2022/12/19 14:36:54;;;;;;;;;;;23.40;78.20;;;;;;5075385;28;19928;-56
2022/12/19 14:39:21;;;;;;;;;;;23.40;78.30;;;;;;5094464;28;19909;-57
2022/12/19 14:44:43;;;;;;;;;;;23.30;78.30;;;;;;5098509;28;19958;-49